createdAt,value
2022-07-31T00:00:13.075Z,1001.83
2022-07-31T00:01:13.322Z,1001.81
2022-07-31T00:02:13.685Z,1001.80
2022-07-31T00:03:13.717Z,1001.77
2022-07-31T00:04:13.321Z,1001.78
2022-07-31T00:05:13.338Z,1001.77
2022-07-31T00:06:13.416Z,1001.73
2022-07-31T00:07:13.693Z,1001.76
2022-07-31T00:08:13.637Z,1001.73
2022-07-31T00:09:48.902Z,1001.75
2022-07-31T00:10:13.457Z,1001.75
2022-07-31T00:11:13.722Z,1001.73
2022-07-31T00:12:14.043Z,1001.70
2022-07-31T00:13:14.174Z,1001.70
2022-07-31T00:14:13.443Z,1001.70
2022-07-31T00:15:13.401Z,1001.67
2022-07-31T00:16:13.831Z,1001.67
2022-07-31T00:17:13.734Z,1001.67
2022-07-31T00:18:13.729Z,1001.68
2022-07-31T00:19:13.742Z,1001.64
2022-07-31T00:20:13.698Z,1001.62
2022-07-31T00:21:13.971Z,1001.61
2022-07-31T00:22:13.355Z,1001.61
2022-07-31T00:23:13.372Z,1001.62
2022-07-31T00:24:13.110Z,1001.64
2022-07-31T00:25:14.790Z,1001.61
2022-07-31T00:26:13.736Z,1001.62
2022-07-31T00:27:13.706Z,1001.61
2022-07-31T00:28:15.080Z,1001.64
2022-07-31T00:29:16.129Z,1001.64
2022-07-31T00:30:13.461Z,1001.63
2022-07-31T00:31:13.561Z,1001.61
2022-07-31T00:32:13.827Z,1001.61
2022-07-31T00:33:13.785Z,1001.57
2022-07-31T00:34:14.261Z,1001.58
2022-07-31T00:35:14.682Z,1001.55
2022-07-31T00:36:15.480Z,1001.53
2022-07-31T00:37:13.610Z,1001.50
2022-07-31T00:38:26.554Z,1001.52
2022-07-31T00:39:13.652Z,1001.48
2022-07-31T00:40:14.576Z,1001.45
2022-07-31T00:41:14.060Z,1001.43
2022-07-31T00:42:13.388Z,1001.43
2022-07-31T00:43:13.747Z,1001.39
2022-07-31T00:44:15.156Z,1001.37
2022-07-31T00:45:13.461Z,1001.37
2022-07-31T00:46:14.412Z,1001.36
2022-07-31T00:47:13.736Z,1001.37
2022-07-31T00:48:13.350Z,1001.33
2022-07-31T00:49:13.707Z,1001.35
2022-07-31T00:50:13.850Z,1001.34
2022-07-31T00:51:14.185Z,1001.31
2022-07-31T00:52:13.478Z,1001.34
2022-07-31T00:53:13.573Z,1001.33
2022-07-31T00:54:22.279Z,1001.36
2022-07-31T00:55:13.394Z,1001.32
2022-07-31T00:56:13.344Z,1001.31
2022-07-31T00:57:13.253Z,1001.35
2022-07-31T00:58:14.760Z,1001.36
2022-07-31T00:59:13.669Z,1001.38
2022-07-31T01:00:13.720Z,1001.36
2022-07-31T01:01:13.764Z,1001.35
2022-07-31T01:02:13.851Z,1001.36
2022-07-31T01:03:13.995Z,1001.33
2022-07-31T01:04:15.503Z,1001.33
2022-07-31T01:05:15.066Z,1001.33
2022-07-31T01:06:12.939Z,1001.30
2022-07-31T01:07:13.527Z,1001.31
2022-07-31T01:08:13.636Z,1001.29
2022-07-31T01:09:13.511Z,1001.27
2022-07-31T01:10:13.717Z,1001.28
2022-07-31T01:11:13.996Z,1001.26
2022-07-31T01:12:12.878Z,1001.28
2022-07-31T01:13:14.900Z,1001.27
2022-07-31T01:14:12.819Z,1001.29
2022-07-31T01:15:15.185Z,1001.29
2022-07-31T01:16:13.552Z,1001.26
2022-07-31T01:17:14.153Z,1001.29
2022-07-31T01:18:13.197Z,1001.28
2022-07-31T01:19:13.963Z,1001.31
2022-07-31T01:20:12.891Z,1001.27
2022-07-31T01:21:12.902Z,1001.29
2022-07-31T01:22:33.986Z,1001.28
2022-07-31T01:23:15.210Z,1001.29
2022-07-31T01:24:13.330Z,1001.29
2022-07-31T01:25:13.257Z,1001.30
2022-07-31T01:26:13.415Z,1001.29
2022-07-31T01:27:13.335Z,1001.28
2022-07-31T01:28:14.591Z,1001.26
2022-07-31T01:29:13.938Z,1001.26
2022-07-31T01:30:12.924Z,1001.28
2022-07-31T01:31:26.135Z,1001.23
2022-07-31T01:32:13.247Z,1001.24
2022-07-31T01:33:13.048Z,1001.23
2022-07-31T01:34:13.222Z,1001.23
2022-07-31T01:35:13.210Z,1001.23
2022-07-31T01:36:13.159Z,1001.23
2022-07-31T01:37:13.234Z,1001.21
2022-07-31T01:38:13.495Z,1001.21
2022-07-31T01:39:13.363Z,1001.23
2022-07-31T01:40:13.327Z,1001.21
2022-07-31T01:41:13.268Z,1001.21
2022-07-31T01:42:13.362Z,1001.24
2022-07-31T01:43:13.473Z,1001.23
2022-07-31T01:44:13.717Z,1001.22
2022-07-31T01:45:13.534Z,1001.24
2022-07-31T01:46:13.437Z,1001.20
2022-07-31T01:47:13.549Z,1001.21
2022-07-31T01:48:13.836Z,1001.19
2022-07-31T01:49:14.372Z,1001.20
2022-07-31T01:50:41.788Z,1001.15
2022-07-31T01:51:13.345Z,1001.18
2022-07-31T01:52:13.739Z,1001.13
2022-07-31T01:53:13.587Z,1001.12
2022-07-31T01:54:13.924Z,1001.09
2022-07-31T01:55:13.067Z,1001.07
2022-07-31T01:56:13.199Z,1001.06
2022-07-31T01:57:13.177Z,1001.08
2022-07-31T01:58:13.464Z,1001.06
2022-07-31T01:59:20.654Z,1001.05
2022-07-31T02:00:33.850Z,1001.06
2022-07-31T02:01:13.696Z,1001.04
2022-07-31T02:02:13.927Z,1001.06
2022-07-31T02:03:12.991Z,1001.03
2022-07-31T02:04:13.528Z,1001.13
2022-07-31T02:05:13.236Z,1001.06
2022-07-31T02:06:13.209Z,1001.05
2022-07-31T02:07:15.397Z,1001.06
2022-07-31T02:08:13.819Z,1001.02
2022-07-31T02:09:14.281Z,1001.03
2022-07-31T02:10:13.572Z,1001.04
2022-07-31T02:11:14.002Z,1001.06
2022-07-31T02:12:13.217Z,1001.04
2022-07-31T02:13:13.766Z,1001.03
2022-07-31T02:14:13.829Z,1001.06
2022-07-31T02:15:13.721Z,1001.03
2022-07-31T02:16:13.840Z,1001.04
2022-07-31T02:17:14.053Z,1001.03
2022-07-31T02:18:13.829Z,1001.04
2022-07-31T02:19:13.974Z,1001.03
2022-07-31T02:20:13.387Z,1001.08
2022-07-31T02:21:13.477Z,1001.05
2022-07-31T02:22:13.830Z,1001.01
2022-07-31T02:23:13.889Z,1001.00
2022-07-31T02:24:13.025Z,1001.01
2022-07-31T02:25:15.095Z,1001.00
2022-07-31T02:26:14.937Z,1001.02
2022-07-31T02:27:54.126Z,1001.00
2022-07-31T02:28:13.644Z,1000.97
2022-07-31T02:29:20.031Z,1000.97
2022-07-31T02:30:13.426Z,1000.96
2022-07-31T02:31:13.947Z,1000.98
2022-07-31T02:32:13.445Z,1000.97
2022-07-31T02:33:13.678Z,1000.97
2022-07-31T02:34:14.216Z,1000.96
2022-07-31T02:35:13.102Z,1000.95
2022-07-31T02:36:12.984Z,1000.93
2022-07-31T02:37:12.804Z,1000.91
2022-07-31T02:38:22.371Z,1000.85
2022-07-31T02:39:13.194Z,1000.85
2022-07-31T02:40:13.167Z,1000.88
2022-07-31T02:41:13.588Z,1000.85
2022-07-31T02:42:13.619Z,1000.84
2022-07-31T02:43:13.829Z,1000.83
2022-07-31T02:44:13.708Z,1000.81
2022-07-31T02:45:13.589Z,1000.78
2022-07-31T02:46:14.153Z,1000.74
2022-07-31T02:47:13.179Z,1000.75
2022-07-31T02:48:13.233Z,1000.72
2022-07-31T02:49:13.217Z,1000.74
2022-07-31T02:50:13.393Z,1000.73
2022-07-31T02:51:13.591Z,1000.74
2022-07-31T02:52:13.746Z,1000.72
2022-07-31T02:53:13.717Z,1000.71
2022-07-31T02:54:13.660Z,1000.69
2022-07-31T02:55:13.720Z,1000.68
2022-07-31T02:56:12.875Z,1000.68
2022-07-31T02:57:13.985Z,1000.69
2022-07-31T02:58:13.405Z,1000.64
2022-07-31T02:59:13.752Z,1000.63
2022-07-31T03:00:13.998Z,1000.62
2022-07-31T03:01:13.122Z,1000.63
2022-07-31T03:02:13.177Z,1000.63
2022-07-31T03:03:13.121Z,1000.62
2022-07-31T03:04:12.998Z,1000.65
2022-07-31T03:05:12.955Z,1000.61
2022-07-31T03:06:12.848Z,1000.65
2022-07-31T03:07:14.078Z,1000.63
2022-07-31T03:08:13.138Z,1000.64
2022-07-31T03:09:13.057Z,1000.61
2022-07-31T03:10:13.327Z,1000.61
2022-07-31T03:11:13.318Z,1000.59
2022-07-31T03:12:13.289Z,1000.62
2022-07-31T03:13:13.136Z,1000.59
2022-07-31T03:14:13.075Z,1000.61
2022-07-31T03:15:13.209Z,1000.58
2022-07-31T03:16:13.462Z,1000.54
2022-07-31T03:17:14.039Z,1000.53
2022-07-31T03:18:13.133Z,1000.53
2022-07-31T03:19:13.180Z,1000.57
2022-07-31T03:20:14.881Z,1000.54
2022-07-31T03:21:13.841Z,1000.57
2022-07-31T03:22:15.424Z,1000.57
2022-07-31T03:23:13.678Z,1000.55
2022-07-31T03:24:13.650Z,1000.56
2022-07-31T03:25:20.101Z,1000.60
2022-07-31T03:26:13.286Z,1000.56
2022-07-31T03:27:13.145Z,1000.52
2022-07-31T03:28:13.170Z,1000.54
2022-07-31T03:29:42.376Z,1000.50
2022-07-31T03:30:13.542Z,1000.54
2022-07-31T03:31:13.634Z,1000.54
2022-07-31T03:32:13.931Z,1000.51
2022-07-31T03:33:13.127Z,1000.51
2022-07-31T03:34:13.423Z,1000.55
2022-07-31T03:35:13.464Z,1000.49
2022-07-31T03:36:13.689Z,1000.50
2022-07-31T03:37:13.931Z,1000.51
2022-07-31T03:38:40.902Z,1000.48
2022-07-31T03:39:13.782Z,1000.47
2022-07-31T03:40:13.884Z,1000.49
2022-07-31T03:41:14.312Z,1000.46
2022-07-31T03:42:18.991Z,1000.47
2022-07-31T03:43:13.274Z,1000.43
2022-07-31T03:44:13.297Z,1000.44
2022-07-31T03:45:13.288Z,1000.45
2022-07-31T03:46:13.444Z,1000.46
2022-07-31T03:47:13.340Z,1000.47
2022-07-31T03:48:13.484Z,1000.46
2022-07-31T03:49:13.966Z,1000.48
2022-07-31T03:50:12.984Z,1000.50
2022-07-31T03:51:13.002Z,1000.46
2022-07-31T03:52:13.070Z,1000.44
2022-07-31T03:53:13.190Z,1000.51
2022-07-31T03:54:13.258Z,1000.46
2022-07-31T03:55:13.548Z,1000.45
2022-07-31T03:56:13.549Z,1000.45
2022-07-31T03:57:13.741Z,1000.43
2022-07-31T03:58:13.360Z,1000.42
2022-07-31T03:59:13.341Z,1000.44
2022-07-31T04:00:16.522Z,1000.45
2022-07-31T04:01:13.493Z,1000.42
2022-07-31T04:02:17.242Z,1000.46
2022-07-31T04:03:13.089Z,1000.43
2022-07-31T04:04:13.000Z,1000.43
2022-07-31T04:05:12.930Z,1000.44
2022-07-31T04:06:12.882Z,1000.42
2022-07-31T04:07:13.904Z,1000.49
2022-07-31T04:08:12.795Z,1000.41
2022-07-31T04:09:18.810Z,1000.44
2022-07-31T04:10:12.980Z,1000.46
2022-07-31T04:11:12.992Z,1000.45
2022-07-31T04:12:13.047Z,1000.46
2022-07-31T04:13:12.914Z,1000.47
2022-07-31T04:14:12.750Z,1000.47
2022-07-31T04:15:13.978Z,1000.48
2022-07-31T04:16:12.968Z,1000.49
2022-07-31T04:17:12.834Z,1000.48
2022-07-31T04:18:13.682Z,1000.45
2022-07-31T04:19:13.905Z,1000.44
2022-07-31T04:20:12.860Z,1000.43
2022-07-31T04:21:13.988Z,1000.41
2022-07-31T04:22:13.956Z,1000.38
2022-07-31T04:23:12.964Z,1000.38
2022-07-31T04:24:13.924Z,1000.41
2022-07-31T04:25:13.096Z,1000.39
2022-07-31T04:26:20.105Z,1000.43
2022-07-31T04:27:13.458Z,1000.37
2022-07-31T04:28:13.481Z,1000.36
2022-07-31T04:29:13.476Z,1000.42
2022-07-31T04:30:13.335Z,1000.42
2022-07-31T04:31:13.342Z,1000.40
2022-07-31T04:32:13.341Z,1000.42
2022-07-31T04:33:13.638Z,1000.44
2022-07-31T04:34:13.969Z,1000.42
2022-07-31T04:35:12.974Z,1000.40
2022-07-31T04:36:29.058Z,1000.40
2022-07-31T04:37:13.684Z,1000.35
2022-07-31T04:38:14.186Z,1000.39
2022-07-31T04:39:13.454Z,1000.44
2022-07-31T04:40:13.357Z,1000.40
2022-07-31T04:41:13.637Z,1000.42
2022-07-31T04:42:13.675Z,1000.41
2022-07-31T04:43:13.587Z,1000.38
2022-07-31T04:44:13.611Z,1000.41
2022-07-31T04:45:13.871Z,1000.42
2022-07-31T04:46:17.140Z,1000.43
2022-07-31T04:47:13.954Z,1000.42
2022-07-31T04:48:12.998Z,1000.39
2022-07-31T04:49:13.037Z,1000.41
2022-07-31T04:50:13.258Z,1000.41
2022-07-31T04:51:14.974Z,1000.42
2022-07-31T04:52:13.020Z,1000.44
2022-07-31T04:53:12.868Z,1000.47
2022-07-31T04:54:13.780Z,1000.45
2022-07-31T04:55:13.698Z,1000.48
2022-07-31T04:56:13.607Z,1000.51
2022-07-31T04:57:18.538Z,1000.54
2022-07-31T04:58:13.754Z,1000.54
2022-07-31T04:59:13.697Z,1000.55
2022-07-31T05:00:13.773Z,1000.55
2022-07-31T05:01:13.764Z,1000.58
2022-07-31T05:02:13.812Z,1000.57
2022-07-31T05:03:13.795Z,1000.57
2022-07-31T05:04:14.604Z,1000.55
2022-07-31T05:05:18.837Z,1000.54
2022-07-31T05:06:14.011Z,1000.53
2022-07-31T05:07:12.907Z,1000.53
2022-07-31T05:08:16.326Z,1000.51
2022-07-31T05:09:18.356Z,1000.51
2022-07-31T05:10:13.004Z,1000.51
2022-07-31T05:11:18.170Z,1000.52
2022-07-31T05:12:13.999Z,1000.47
2022-07-31T05:13:12.911Z,1000.46
2022-07-31T05:14:14.983Z,1000.46
2022-07-31T05:15:13.315Z,1000.48
2022-07-31T05:16:13.188Z,1000.47
2022-07-31T05:17:13.687Z,1000.47
2022-07-31T05:18:13.671Z,1000.45
2022-07-31T05:19:15.005Z,1000.47
2022-07-31T05:20:13.834Z,1000.49
2022-07-31T05:21:14.564Z,1000.52
2022-07-31T05:22:13.536Z,1000.50
2022-07-31T05:23:13.988Z,1000.50
2022-07-31T05:24:12.853Z,1000.50
2022-07-31T05:25:13.849Z,1000.49
2022-07-31T05:26:13.796Z,1000.54
2022-07-31T05:27:14.119Z,1000.55
2022-07-31T05:28:13.529Z,1000.55
2022-07-31T05:29:18.986Z,1000.53
2022-07-31T05:30:12.940Z,1000.58
2022-07-31T05:31:13.962Z,1000.56
2022-07-31T05:32:14.641Z,1000.57
2022-07-31T05:33:13.945Z,1000.56
2022-07-31T05:34:18.741Z,1000.57
2022-07-31T05:35:14.039Z,1000.59
2022-07-31T05:36:23.385Z,1000.57
2022-07-31T05:37:13.644Z,1000.55
2022-07-31T05:38:13.706Z,1000.64
2022-07-31T05:39:19.155Z,1000.59
2022-07-31T05:40:18.610Z,1000.62
2022-07-31T05:41:18.581Z,1000.60
2022-07-31T05:42:12.830Z,1000.57
2022-07-31T05:43:13.844Z,1000.60
2022-07-31T05:44:15.347Z,1000.63
2022-07-31T05:45:13.604Z,1000.58
2022-07-31T05:46:14.175Z,1000.57
2022-07-31T05:47:13.174Z,1000.60
2022-07-31T05:48:13.684Z,1000.57
2022-07-31T05:49:13.742Z,1000.58
2022-07-31T05:50:14.061Z,1000.57
2022-07-31T05:51:24.138Z,1000.55
2022-07-31T05:52:13.192Z,1000.51
2022-07-31T05:53:24.059Z,1000.50
2022-07-31T05:54:14.224Z,1000.48
2022-07-31T05:55:18.294Z,1000.48
2022-07-31T05:56:13.248Z,1000.52
2022-07-31T05:57:13.156Z,1000.53
2022-07-31T05:58:16.591Z,1000.55
2022-07-31T05:59:14.062Z,1000.57
2022-07-31T06:00:13.041Z,1000.54
2022-07-31T06:01:15.314Z,1000.58
2022-07-31T06:02:20.225Z,1000.55
2022-07-31T06:03:13.374Z,1000.55
2022-07-31T06:04:13.787Z,1000.50
2022-07-31T06:05:14.084Z,1000.53
2022-07-31T06:06:13.311Z,1000.53
2022-07-31T06:07:23.526Z,1000.55
2022-07-31T06:08:18.808Z,1000.54
2022-07-31T06:09:13.740Z,1000.53
2022-07-31T06:10:15.307Z,1000.55
2022-07-31T06:11:14.392Z,1000.52
2022-07-31T06:12:14.320Z,1000.52
2022-07-31T06:13:14.679Z,1000.51
2022-07-31T06:14:14.716Z,1000.50
2022-07-31T06:15:14.244Z,1000.49
2022-07-31T06:16:13.436Z,1000.53
2022-07-31T06:17:15.485Z,1000.53
2022-07-31T06:18:13.427Z,1000.51
2022-07-31T06:19:18.839Z,1000.51
2022-07-31T06:20:14.294Z,1000.49
2022-07-31T06:22:13.420Z,1000.56
2022-07-31T06:23:22.924Z,1000.53
2022-07-31T06:24:13.855Z,1000.50
2022-07-31T06:25:14.922Z,1000.50
2022-07-31T06:26:13.155Z,1000.52
2022-07-31T06:27:25.321Z,1000.53
2022-07-31T06:28:14.896Z,1000.49
2022-07-31T06:29:13.430Z,1000.47
2022-07-31T06:30:13.440Z,1000.48
2022-07-31T06:31:13.678Z,1000.46
2022-07-31T06:32:14.167Z,1000.51
2022-07-31T06:33:24.885Z,1000.50
2022-07-31T06:34:15.165Z,1000.51
2022-07-31T06:35:13.249Z,1000.50
2022-07-31T06:36:14.265Z,1000.49
2022-07-31T06:37:15.173Z,1000.48
2022-07-31T06:38:13.261Z,1000.52
2022-07-31T06:39:14.564Z,1000.53
2022-07-31T06:40:13.508Z,1000.53
2022-07-31T06:41:13.421Z,1000.57
2022-07-31T06:42:13.461Z,1000.54
2022-07-31T06:43:13.862Z,1000.55
2022-07-31T06:44:13.795Z,1000.61
2022-07-31T06:45:25.085Z,1000.59
2022-07-31T06:46:13.960Z,1000.57
2022-07-31T06:47:18.111Z,1000.56
2022-07-31T06:48:14.538Z,1000.54
2022-07-31T06:49:20.072Z,1000.49
2022-07-31T06:50:13.049Z,1000.45
2022-07-31T06:51:30.765Z,1000.45
2022-07-31T06:52:19.841Z,1000.44
2022-07-31T06:53:14.320Z,1000.43
2022-07-31T06:54:13.698Z,1000.43
2022-07-31T06:55:13.786Z,1000.44
2022-07-31T06:56:14.383Z,1000.46
2022-07-31T06:57:24.553Z,1000.52
2022-07-31T06:58:14.200Z,1000.51
2022-07-31T06:59:13.265Z,1000.56
2022-07-31T07:00:19.579Z,1000.55
2022-07-31T07:01:14.537Z,1000.48
2022-07-31T07:02:13.549Z,1000.45
2022-07-31T07:03:13.485Z,1000.48
2022-07-31T07:04:13.605Z,1000.47
2022-07-31T07:05:14.615Z,1000.45
2022-07-31T07:06:13.644Z,1000.46
2022-07-31T07:07:19.034Z,1000.42
2022-07-31T07:08:13.107Z,1000.44
2022-07-31T07:09:13.244Z,1000.48
2022-07-31T07:10:13.138Z,1000.48
2022-07-31T07:11:13.393Z,1000.50
2022-07-31T07:12:16.683Z,1000.48
2022-07-31T07:13:18.011Z,1000.53
2022-07-31T07:14:13.216Z,1000.49
2022-07-31T07:15:13.035Z,1000.49
2022-07-31T07:16:12.938Z,1000.52
2022-07-31T07:17:14.223Z,1000.48
2022-07-31T07:18:13.249Z,1000.43
2022-07-31T07:19:16.015Z,1000.42
2022-07-31T07:20:12.960Z,1000.41
2022-07-31T07:21:12.969Z,1000.44
2022-07-31T07:22:12.950Z,1000.39
2022-07-31T07:23:14.212Z,1000.39
2022-07-31T07:24:13.407Z,1000.40
2022-07-31T07:25:13.551Z,1000.40
2022-07-31T07:26:14.015Z,1000.41
2022-07-31T07:27:13.129Z,1000.44
2022-07-31T07:28:29.224Z,1000.38
2022-07-31T07:29:13.288Z,1000.34
2022-07-31T07:30:13.373Z,1000.34
2022-07-31T07:31:13.463Z,1000.36
2022-07-31T07:32:13.589Z,1000.33
2022-07-31T07:33:15.295Z,1000.34
2022-07-31T07:34:12.970Z,1000.35
2022-07-31T07:35:14.102Z,1000.38
2022-07-31T07:36:23.208Z,1000.36
2022-07-31T07:37:13.464Z,1000.36
2022-07-31T07:38:13.714Z,1000.34
2022-07-31T07:39:15.277Z,1000.37
2022-07-31T07:40:13.210Z,1000.28
2022-07-31T07:41:13.620Z,1000.30
2022-07-31T07:42:13.944Z,1000.28
2022-07-31T07:43:12.953Z,1000.31
2022-07-31T07:44:13.028Z,1000.31
2022-07-31T07:45:13.993Z,1000.20
2022-07-31T07:46:13.060Z,1000.26
2022-07-31T07:47:13.252Z,1000.23
2022-07-31T07:48:13.204Z,1000.28
2022-07-31T07:49:15.176Z,1000.28
2022-07-31T07:50:13.183Z,1000.28
2022-07-31T07:51:13.071Z,1000.25
2022-07-31T07:52:13.658Z,1000.25
2022-07-31T07:53:13.888Z,1000.21
2022-07-31T07:54:18.848Z,1000.20
2022-07-31T07:55:13.775Z,1000.20
2022-07-31T07:56:14.189Z,1000.18
2022-07-31T07:57:13.122Z,1000.16
2022-07-31T07:58:13.160Z,1000.12
2022-07-31T07:59:15.003Z,1000.10
2022-07-31T08:00:13.426Z,1000.09
2022-07-31T08:01:13.894Z,1000.12
2022-07-31T08:02:13.383Z,1000.10
2022-07-31T08:03:49.920Z,1000.10
2022-07-31T08:04:18.570Z,1000.08
2022-07-31T08:05:18.513Z,1000.14
2022-07-31T08:06:17.041Z,1000.12
2022-07-31T08:07:13.446Z,1000.16
2022-07-31T08:08:19.072Z,1000.16
2022-07-31T08:09:13.418Z,1000.15
2022-07-31T08:10:13.862Z,1000.17
2022-07-31T08:11:16.914Z,1000.17
2022-07-31T08:12:14.710Z,1000.16
2022-07-31T08:13:14.319Z,1000.11
2022-07-31T08:14:15.198Z,1000.13
2022-07-31T08:15:13.441Z,1000.05
2022-07-31T08:16:18.552Z,1000.12
2022-07-31T08:17:15.074Z,1000.07
2022-07-31T08:18:13.351Z,1000.09
2022-07-31T08:19:14.382Z,1000.08
2022-07-31T08:20:14.333Z,1000.09
2022-07-31T08:21:14.930Z,1000.10
2022-07-31T08:22:13.140Z,1000.09
2022-07-31T08:23:13.135Z,1000.13
2022-07-31T08:24:13.488Z,1000.11
2022-07-31T08:25:14.473Z,1000.08
2022-07-31T08:26:14.459Z,1000.11
2022-07-31T08:27:13.474Z,1000.11
2022-07-31T08:28:14.032Z,1000.10
2022-07-31T08:29:13.847Z,1000.09
2022-07-31T08:30:13.431Z,1000.08
2022-07-31T08:31:13.584Z,1000.08
2022-07-31T08:32:13.931Z,1000.12
2022-07-31T08:33:13.064Z,1000.12
2022-07-31T08:34:13.005Z,1000.12
2022-07-31T08:35:14.249Z,1000.08
2022-07-31T08:36:13.306Z,1000.16
2022-07-31T08:37:51.184Z,1000.15
2022-07-31T08:38:14.428Z,1000.15
2022-07-31T08:39:21.264Z,1000.16
2022-07-31T08:40:13.518Z,1000.20
2022-07-31T08:41:13.907Z,1000.22
2022-07-31T08:42:13.250Z,1000.18
2022-07-31T08:44:00.195Z,1000.23
2022-07-31T08:44:13.985Z,1000.20
2022-07-31T08:45:13.361Z,1000.23
2022-07-31T08:46:14.994Z,1000.22
2022-07-31T08:47:13.423Z,1000.28
2022-07-31T08:48:13.883Z,1000.28
2022-07-31T08:49:13.145Z,1000.25
2022-07-31T08:50:16.229Z,1000.29
2022-07-31T08:51:15.131Z,1000.25
2022-07-31T08:52:16.183Z,1000.30
2022-07-31T08:53:13.612Z,1000.27
2022-07-31T08:54:13.515Z,1000.17
2022-07-31T08:55:24.660Z,1000.20
2022-07-31T08:56:14.306Z,1000.23
2022-07-31T08:57:13.429Z,1000.23
2022-07-31T08:58:13.270Z,1000.19
2022-07-31T08:59:13.188Z,1000.24
2022-07-31T09:00:13.410Z,1000.25
2022-07-31T09:01:13.667Z,1000.26
2022-07-31T09:02:13.731Z,1000.31
2022-07-31T09:03:19.293Z,1000.31
2022-07-31T09:04:13.559Z,1000.31
2022-07-31T09:05:14.560Z,1000.31
2022-07-31T09:06:13.490Z,1000.29
2022-07-31T09:07:13.834Z,1000.23
2022-07-31T09:08:15.104Z,1000.21
2022-07-31T09:09:18.265Z,1000.19
2022-07-31T09:10:13.237Z,1000.21
2022-07-31T09:11:13.767Z,1000.22
2022-07-31T09:12:13.684Z,1000.24
2022-07-31T09:13:13.634Z,1000.19
2022-07-31T09:14:13.635Z,1000.20
2022-07-31T09:15:14.915Z,1000.26
2022-07-31T09:16:21.590Z,1000.17
2022-07-31T09:17:13.408Z,1000.18
2022-07-31T09:18:14.361Z,1000.21
2022-07-31T09:19:53.147Z,1000.21
2022-07-31T09:20:13.475Z,1000.19
2022-07-31T09:21:13.509Z,1000.18
2022-07-31T09:22:13.369Z,1000.22
2022-07-31T09:23:13.179Z,1000.19
2022-07-31T09:24:13.208Z,1000.21
2022-07-31T09:25:13.181Z,1000.17
2022-07-31T09:26:18.104Z,1000.19
2022-07-31T09:27:13.241Z,1000.17
2022-07-31T09:28:13.265Z,1000.16
2022-07-31T09:29:13.329Z,1000.13
2022-07-31T09:30:14.408Z,1000.13
2022-07-31T09:31:13.661Z,1000.09
2022-07-31T09:32:13.696Z,1000.14
2022-07-31T09:33:13.803Z,1000.14
2022-07-31T09:34:13.524Z,1000.19
2022-07-31T09:35:13.326Z,1000.13
2022-07-31T09:36:13.332Z,1000.17
2022-07-31T09:37:13.244Z,1000.18
2022-07-31T09:38:13.163Z,1000.18
2022-07-31T09:39:13.067Z,1000.20
2022-07-31T09:40:12.968Z,1000.22
2022-07-31T09:41:52.351Z,1000.18
2022-07-31T09:42:16.869Z,1000.17
2022-07-31T09:43:14.511Z,1000.21
2022-07-31T09:44:13.495Z,1000.16
2022-07-31T09:45:13.467Z,1000.23
2022-07-31T09:46:14.743Z,1000.24
2022-07-31T09:47:13.793Z,1000.24
2022-07-31T09:48:26.292Z,1000.23
2022-07-31T09:49:13.067Z,1000.24
2022-07-31T09:50:13.152Z,1000.20
2022-07-31T09:51:14.367Z,1000.21
2022-07-31T09:52:13.360Z,1000.18
2022-07-31T09:53:13.359Z,1000.16
2022-07-31T09:54:13.408Z,1000.19
2022-07-31T09:55:15.432Z,1000.15
2022-07-31T09:56:13.589Z,1000.19
2022-07-31T09:57:13.761Z,1000.17
2022-07-31T09:58:14.210Z,1000.17
2022-07-31T09:59:14.665Z,1000.14
2022-07-31T10:00:17.293Z,1000.21
2022-07-31T10:01:13.585Z,1000.13
2022-07-31T10:02:13.586Z,1000.13
2022-07-31T10:03:13.689Z,1000.17
2022-07-31T10:04:13.491Z,1000.15
2022-07-31T10:05:13.512Z,1000.11
2022-07-31T10:06:16.641Z,1000.12
2022-07-31T10:07:31.750Z,1000.11
2022-07-31T10:08:13.520Z,1000.20
2022-07-31T10:09:15.042Z,1000.17
2022-07-31T10:10:13.070Z,1000.20
2022-07-31T10:11:16.643Z,1000.15
2022-07-31T10:12:16.376Z,1000.16
2022-07-31T10:13:15.328Z,1000.17
2022-07-31T10:14:13.237Z,1000.15
2022-07-31T10:15:13.137Z,1000.15
2022-07-31T10:16:13.060Z,1000.19
2022-07-31T10:17:13.021Z,1000.18
2022-07-31T10:18:15.710Z,1000.19
2022-07-31T10:19:13.740Z,1000.19
2022-07-31T10:20:15.358Z,1000.19
2022-07-31T10:21:13.387Z,1000.15
2022-07-31T10:22:14.237Z,1000.20
2022-07-31T10:23:18.475Z,1000.14
2022-07-31T10:24:14.944Z,1000.12
2022-07-31T10:25:13.058Z,1000.11
2022-07-31T10:26:14.595Z,1000.09
2022-07-31T10:27:13.968Z,1000.07
2022-07-31T10:28:14.668Z,1000.08
2022-07-31T10:29:14.091Z,1000.08
2022-07-31T10:30:12.930Z,1000.03
2022-07-31T10:31:12.791Z,1000.11
2022-07-31T10:32:13.736Z,1000.01
2022-07-31T10:33:41.930Z,999.97
2022-07-31T10:34:13.599Z,1000.02
2022-07-31T10:35:13.485Z,1000.00
2022-07-31T10:36:15.025Z,999.97
2022-07-31T10:37:17.811Z,999.96
2022-07-31T10:38:15.212Z,1000.00
2022-07-31T10:39:13.246Z,1000.01
2022-07-31T10:40:13.310Z,999.99
2022-07-31T10:41:13.283Z,999.99
2022-07-31T10:42:13.651Z,1000.01
2022-07-31T10:43:13.629Z,999.95
2022-07-31T10:44:15.749Z,1000.00
2022-07-31T10:45:13.780Z,999.93
2022-07-31T10:46:14.821Z,999.96
2022-07-31T10:47:15.582Z,999.93
2022-07-31T10:48:13.617Z,999.98
2022-07-31T10:49:13.616Z,999.95
2022-07-31T10:50:13.685Z,999.93
2022-07-31T10:51:14.201Z,999.93
2022-07-31T10:52:13.572Z,999.92
2022-07-31T10:53:15.080Z,999.92
2022-07-31T10:54:13.205Z,999.89
2022-07-31T10:55:13.651Z,999.92
2022-07-31T10:56:13.444Z,999.87
2022-07-31T10:57:13.684Z,999.85
2022-07-31T10:58:15.659Z,999.85
2022-07-31T10:59:15.271Z,999.89
2022-07-31T11:00:13.355Z,999.86
2022-07-31T11:01:17.441Z,999.90
2022-07-31T11:02:15.376Z,999.91
2022-07-31T11:03:15.411Z,999.83
2022-07-31T11:04:13.467Z,999.87
2022-07-31T11:05:14.716Z,999.85
2022-07-31T11:06:16.159Z,999.87
2022-07-31T11:07:16.986Z,999.89
2022-07-31T11:08:14.808Z,999.87
2022-07-31T11:09:16.729Z,999.86
2022-07-31T11:10:20.253Z,999.85
2022-07-31T11:11:13.946Z,999.79
2022-07-31T11:12:13.000Z,999.83
2022-07-31T11:13:13.613Z,999.78
2022-07-31T11:14:14.712Z,999.82
2022-07-31T11:15:13.846Z,999.81
2022-07-31T11:16:16.448Z,999.76
2022-07-31T11:17:15.040Z,999.83
2022-07-31T11:18:24.963Z,999.81
2022-07-31T11:19:19.004Z,999.81
2022-07-31T11:20:15.961Z,999.80
2022-07-31T11:22:31.513Z,999.86
2022-07-31T11:23:15.872Z,999.81
2022-07-31T11:24:14.005Z,999.87
2022-07-31T11:25:14.781Z,999.89
2022-07-31T11:26:14.689Z,999.85
2022-07-31T11:27:16.660Z,999.81
2022-07-31T11:28:18.170Z,999.85
2022-07-31T11:30:01.281Z,999.79
2022-07-31T11:30:15.019Z,999.79
2022-07-31T11:31:13.431Z,999.78
2022-07-31T11:32:16.347Z,999.79
2022-07-31T11:33:16.957Z,999.76
2022-07-31T11:34:13.115Z,999.75
2022-07-31T11:35:13.716Z,999.74
2022-07-31T11:36:15.491Z,999.76
2022-07-31T11:37:13.761Z,999.78
2022-07-31T11:38:25.729Z,999.75
2022-07-31T11:39:13.935Z,999.81
2022-07-31T11:40:18.169Z,999.82
2022-07-31T11:41:15.122Z,999.84
2022-07-31T11:42:13.300Z,999.82
2022-07-31T11:43:26.350Z,999.83
2022-07-31T11:44:14.438Z,999.79
2022-07-31T11:45:15.532Z,999.82
2022-07-31T11:46:12.936Z,999.77
2022-07-31T11:48:09.379Z,999.83
2022-07-31T11:48:19.342Z,999.79
2022-07-31T11:49:13.706Z,999.74
2022-07-31T11:50:13.680Z,999.76
2022-07-31T11:51:16.123Z,999.74
2022-07-31T11:52:31.272Z,999.80
2022-07-31T11:53:13.536Z,999.79
2022-07-31T11:54:13.628Z,999.75
2022-07-31T11:55:15.617Z,999.76
2022-07-31T11:56:15.465Z,999.80
2022-07-31T11:57:13.750Z,999.77
2022-07-31T11:58:15.280Z,999.76
2022-07-31T11:59:45.514Z,999.80
2022-07-31T12:00:26.539Z,999.73
2022-07-31T12:01:13.424Z,999.77
2022-07-31T12:02:13.435Z,999.73
2022-07-31T12:03:13.584Z,999.74
2022-07-31T12:04:15.188Z,999.73
2022-07-31T12:05:13.374Z,999.70
2022-07-31T12:06:13.504Z,999.70
2022-07-31T12:07:13.672Z,999.68
2022-07-31T12:08:13.615Z,999.66
2022-07-31T12:10:02.368Z,999.65
2022-07-31T12:10:14.898Z,999.64